Airfield :
LOGIN :

Register | Disclaimer

   EN    FR    IT 

 










Legend :    VFR   Marginal VFR   IFR   Intensive IFR   Very Intensive IFR
Visi :
Ceiling :
>= 8 km
>= 3000ft
5 to 8 km
1000 to 3000 ft
1500m to 5 km
500 to 1000 ft
800 to 1500m
200 to 500 ft
< 800m
< 200 ft
Symbols :   Thunderstorms  Fog  Heavy snow  Heavy precipitations  Wind > 20 kt
SIGMETs :     Misc.  Thunderstorms  Icing  Turbulence  Mountain Waves  Volcanic Ashes







- Airport Elevation : 468 ft
- IATA code : BQT


UMBB - Brest

METAR N/A
TAF TAF UMBB
Valid from the 23 at 18:00 until the 24 at 03:00 UTC


231705Z 2318/2403 VRB02MPS 5000 BR BKN010
TEMPO 2321/2403 2000 BR BKN005
No reported NOTAMs for that airfield.
1 SIGMET reported for the Minsk FIR (UMMV) :
 
Severe icing with freezing rain
UMMV SIGMET 1 VALID 231726/232000 UMMS
UMMV MINSK FIR SEV ICE (FZRA) FCST N OF LINE N53 E024 - N54 E031 SFC/FL100 MOV S 40KMH NC=



MET'MAP, your aeronautical weather chart ! - Copyright ORBIFLY December 2007 - Disclaimer

ORBIFLY MET'MAP TEAM :

Programming & Development : Alexandra Zaïnal
Concept & Development : Baudouin d'Aumeries
Co-Development & Prog : Marc-Olivier Méhu
Technical & hardware support : Manuel Goepfert

Contact : metmap@orbifly.com




SOURCES & CREDITS :

   NOAA